createdAt,value
2017-10-27T00:01:05.034Z,30.87
2017-10-27T00:02:10.540Z,27.37
2017-10-27T00:03:16.246Z,29.00
2017-10-27T00:04:21.757Z,28.60
2017-10-27T00:05:27.277Z,28.93
2017-10-27T00:06:32.721Z,30.40
2017-10-27T00:07:38.130Z,29.67
2017-10-27T00:08:43.607Z,29.90
2017-10-27T00:09:49.057Z,28.60
2017-10-27T00:10:54.870Z,28.37
2017-10-27T00:12:00.249Z,29.10
2017-10-27T00:13:05.907Z,28.77
2017-10-27T00:14:11.298Z,31.40
2017-10-27T00:15:16.899Z,29.80
2017-10-27T00:16:22.317Z,28.37
2017-10-27T00:17:27.756Z,29.00
2017-10-27T00:18:33.225Z,30.17
2017-10-27T00:19:39.354Z,28.80
2017-10-27T00:20:44.869Z,26.67
2017-10-27T00:21:50.270Z,30.23
2017-10-27T00:22:55.671Z,30.47
2017-10-27T00:24:01.086Z,31.37
2017-10-27T00:25:06.495Z,31.37
2017-10-27T00:26:11.874Z,30.73
2017-10-27T00:27:17.361Z,30.80
2017-10-27T00:28:22.761Z,30.97
2017-10-27T00:29:28.194Z,36.60
2017-10-27T00:30:33.658Z,33.40
2017-10-27T00:31:39.621Z,29.80
2017-10-27T00:32:45.027Z,33.80
2017-10-27T00:33:50.455Z,30.10
2017-10-27T00:34:55.900Z,30.70
2017-10-27T00:36:01.379Z,31.33
2017-10-27T00:37:07.298Z,33.00
2017-10-27T00:38:12.700Z,34.00
2017-10-27T00:39:18.107Z,30.23
2017-10-27T00:40:23.560Z,31.10
2017-10-27T00:41:29.034Z,32.53
2017-10-27T00:42:34.771Z,34.70
2017-10-27T00:43:40.167Z,32.97
2017-10-27T00:44:45.575Z,33.37
2017-10-27T00:45:51.134Z,31.50
2017-10-27T00:46:56.551Z,33.43
2017-10-27T00:48:02.051Z,35.30
2017-10-27T00:49:07.518Z,36.30
2017-10-27T00:50:13.254Z,33.60
2017-10-27T00:51:18.710Z,39.53
2017-10-27T00:52:24.174Z,32.10
2017-10-27T00:53:29.602Z,34.03
2017-10-27T00:54:35.523Z,30.97
2017-10-27T00:55:40.980Z,35.80
2017-10-27T00:56:46.606Z,33.77
2017-10-27T00:57:52.038Z,35.57
2017-10-27T00:58:57.480Z,33.17
2017-10-27T01:00:02.945Z,30.97
2017-10-27T01:01:08.343Z,32.87
2017-10-27T01:02:13.894Z,35.13
2017-10-27T01:03:19.302Z,33.47
2017-10-27T01:04:24.747Z,33.40
2017-10-27T01:05:30.164Z,32.70
2017-10-27T01:06:35.965Z,32.80
2017-10-27T01:07:41.714Z,33.63
2017-10-27T01:08:47.114Z,33.13
2017-10-27T01:09:52.572Z,32.17
2017-10-27T01:10:57.995Z,34.23
2017-10-27T01:12:04.194Z,32.60
2017-10-27T01:13:09.834Z,31.83
2017-10-27T01:14:15.372Z,33.43
2017-10-27T01:15:20.755Z,31.77
2017-10-27T01:16:26.564Z,32.27
2017-10-27T01:17:31.985Z,33.77
2017-10-27T01:18:37.432Z,30.63
2017-10-27T01:19:42.959Z,30.87
2017-10-27T01:20:48.426Z,28.47
2017-10-27T01:21:54.052Z,29.80
2017-10-27T01:22:59.499Z,30.97
2017-10-27T01:24:04.894Z,28.73
2017-10-27T01:25:10.311Z,28.33
2017-10-27T01:26:15.772Z,31.47
2017-10-27T01:27:21.460Z,33.67
2017-10-27T01:28:27.308Z,33.07
2017-10-27T01:29:32.854Z,32.73
2017-10-27T01:30:38.314Z,31.30
2017-10-27T01:31:44.448Z,33.10
2017-10-27T01:32:50.148Z,30.57
2017-10-27T01:33:56.363Z,30.60
2017-10-27T01:35:01.941Z,30.13
2017-10-27T01:36:07.606Z,32.70
2017-10-27T01:37:13.010Z,32.33
2017-10-27T01:38:18.776Z,32.57
2017-10-27T01:39:24.236Z,30.93
2017-10-27T01:40:29.663Z,31.27
2017-10-27T01:41:35.546Z,31.00
2017-10-27T01:42:40.996Z,30.70
2017-10-27T01:43:46.424Z,33.33
2017-10-27T01:44:51.895Z,33.50
2017-10-27T01:45:57.447Z,34.50
2017-10-27T01:47:02.914Z,32.67
2017-10-27T01:48:08.870Z,31.50
2017-10-27T01:49:14.820Z,33.87
2017-10-27T01:50:20.356Z,31.00
2017-10-27T01:51:25.947Z,32.83
2017-10-27T01:52:31.831Z,32.10
2017-10-27T01:53:37.324Z,29.17
2017-10-27T01:54:43.369Z,31.60
2017-10-27T01:55:48.879Z,29.13
2017-10-27T01:56:54.401Z,31.03
2017-10-27T01:57:59.842Z,29.50
2017-10-27T01:59:05.272Z,27.50
2017-10-27T02:00:10.876Z,26.77
2017-10-27T02:01:16.365Z,27.37
2017-10-27T02:02:21.841Z,30.87
2017-10-27T02:03:27.455Z,27.63
2017-10-27T02:04:33.402Z,27.60
2017-10-27T02:05:39.136Z,29.30
2017-10-27T02:06:44.747Z,28.43
2017-10-27T02:09:04.375Z,25.80
2017-10-27T02:10:09.789Z,28.60
2017-10-27T02:11:15.467Z,27.70
2017-10-27T02:12:21.205Z,29.53
2017-10-27T02:13:26.687Z,28.60
2017-10-27T02:14:32.277Z,29.53
2017-10-27T02:15:38.637Z,27.40
2017-10-27T02:16:44.179Z,25.83
2017-10-27T02:17:49.882Z,26.63
2017-10-27T02:18:55.795Z,28.37
2017-10-27T02:20:01.252Z,26.60
2017-10-27T02:21:06.772Z,25.90
2017-10-27T02:22:12.303Z,24.13
2017-10-27T02:23:17.708Z,25.27
2017-10-27T02:24:23.164Z,22.17
2017-10-27T02:25:28.591Z,22.90
2017-10-27T02:26:34.020Z,22.53
2017-10-27T02:27:39.507Z,26.80
2017-10-27T02:28:44.975Z,23.80
2017-10-27T02:29:50.760Z,23.40
2017-10-27T02:30:56.481Z,23.10
2017-10-27T02:32:02.407Z,23.23
2017-10-27T02:33:08.275Z,23.17
2017-10-27T02:34:13.806Z,23.07
2017-10-27T02:35:19.324Z,23.83
2017-10-27T02:36:25.517Z,21.47
2017-10-27T02:37:31.231Z,24.20
2017-10-27T02:38:37.361Z,20.67
2017-10-27T02:39:42.847Z,22.47
2017-10-27T02:40:48.333Z,22.53
2017-10-27T02:41:54.266Z,21.50
2017-10-27T02:43:00.296Z,24.83
2017-10-27T02:44:05.757Z,21.77
2017-10-27T02:45:11.181Z,22.50
2017-10-27T02:46:17.058Z,22.50
2017-10-27T02:47:22.516Z,23.70
2017-10-27T02:48:28.012Z,23.73
2017-10-27T02:49:33.932Z,22.63
2017-10-27T02:50:39.890Z,22.27
2017-10-27T02:51:45.662Z,25.80
2017-10-27T02:52:51.295Z,22.47
2017-10-27T02:53:56.739Z,23.40
2017-10-27T02:55:02.155Z,23.73
2017-10-27T02:56:07.601Z,23.93
2017-10-27T02:57:13.457Z,21.57
2017-10-27T02:58:19.050Z,22.53
2017-10-27T02:59:24.493Z,22.43
2017-10-27T03:00:29.940Z,22.03
2017-10-27T03:01:35.537Z,22.33
2017-10-27T03:02:41.076Z,21.17
2017-10-27T03:03:46.549Z,20.60
2017-10-27T03:04:52.229Z,21.77
2017-10-27T03:05:57.717Z,23.07
2017-10-27T03:07:03.299Z,24.03
2017-10-27T03:08:08.756Z,21.63
2017-10-27T03:09:15.171Z,23.27
2017-10-27T03:10:20.634Z,20.60
2017-10-27T03:11:26.068Z,22.57
2017-10-27T03:12:31.631Z,22.30
2017-10-27T03:13:37.214Z,22.90
2017-10-27T03:14:43.738Z,20.57
2017-10-27T03:15:49.594Z,22.23
2017-10-27T03:16:55.089Z,21.57
2017-10-27T03:18:00.586Z,23.70
2017-10-27T03:19:05.975Z,22.50
2017-10-27T03:20:12.977Z,22.70
2017-10-27T03:21:18.393Z,18.60
2017-10-27T03:22:24.004Z,20.20
2017-10-27T03:23:29.445Z,19.03
2017-10-27T03:24:34.969Z,20.40
2017-10-27T03:25:40.891Z,18.60
2017-10-27T03:26:46.754Z,20.20
2017-10-27T03:27:52.197Z,18.10
2017-10-27T03:28:57.713Z,17.97
2017-10-27T03:30:03.119Z,18.33
2017-10-27T03:31:08.964Z,19.70
2017-10-27T03:32:14.372Z,17.93
2017-10-27T03:33:19.761Z,20.03
2017-10-27T03:34:25.217Z,18.83
2017-10-27T03:35:30.839Z,18.50
2017-10-27T03:36:36.214Z,15.97
2017-10-27T03:37:41.622Z,18.80
2017-10-27T03:38:47.074Z,16.57
2017-10-27T03:39:52.719Z,18.53
2017-10-27T03:40:58.135Z,19.57
2017-10-27T03:42:03.526Z,17.07
2017-10-27T03:43:08.950Z,19.47
2017-10-27T03:44:14.365Z,18.33
2017-10-27T03:45:20.273Z,21.30
2017-10-27T03:46:25.687Z,18.23
2017-10-27T03:47:31.067Z,19.43
2017-10-27T03:48:36.473Z,18.73
2017-10-27T03:49:41.881Z,21.30
2017-10-27T03:50:47.409Z,19.37
2017-10-27T03:51:52.867Z,19.63
2017-10-27T03:52:58.286Z,21.27
2017-10-27T03:54:03.728Z,21.37
2017-10-27T03:55:09.201Z,18.90
2017-10-27T03:56:14.699Z,21.50
2017-10-27T03:57:20.261Z,20.40
2017-10-27T03:58:25.975Z,20.53
2017-10-27T03:59:31.464Z,21.53
2017-10-27T04:00:36.962Z,21.83
2017-10-27T04:01:42.412Z,21.17
2017-10-27T04:02:47.811Z,21.70
2017-10-27T04:03:53.276Z,21.07
2017-10-27T04:04:58.742Z,20.63
2017-10-27T04:06:04.145Z,23.73
2017-10-27T04:07:09.639Z,20.80
2017-10-27T04:08:15.051Z,21.23
2017-10-27T04:09:20.452Z,19.50
2017-10-27T04:10:25.895Z,21.93
2017-10-27T04:11:31.376Z,20.33
2017-10-27T04:12:37.079Z,20.27
2017-10-27T04:13:42.480Z,19.63
2017-10-27T04:14:48.106Z,19.77
2017-10-27T04:15:53.519Z,21.77
2017-10-27T04:16:59.103Z,19.70
2017-10-27T04:18:04.532Z,19.13
2017-10-27T04:19:09.935Z,22.10
2017-10-27T04:20:15.417Z,18.50
2017-10-27T04:21:20.826Z,20.50
2017-10-27T04:22:26.257Z,19.73
2017-10-27T04:23:31.669Z,19.80
2017-10-27T04:24:37.378Z,19.50
2017-10-27T04:25:42.786Z,17.90
2017-10-27T04:26:48.332Z,17.97
2017-10-27T04:27:53.780Z,17.07
2017-10-27T04:28:59.352Z,18.37
2017-10-27T04:30:04.950Z,16.93
2017-10-27T04:31:10.366Z,17.13
2017-10-27T04:32:15.806Z,17.23
2017-10-27T04:33:21.263Z,15.50
2017-10-27T04:34:26.755Z,15.53
2017-10-27T04:35:32.375Z,17.50
2017-10-27T04:36:37.824Z,16.30
2017-10-27T04:37:43.356Z,16.33
2017-10-27T04:38:49.199Z,17.83
2017-10-27T04:39:54.727Z,15.80
2017-10-27T04:41:00.832Z,18.70
2017-10-27T04:42:06.304Z,16.30
2017-10-27T04:43:11.710Z,15.90
2017-10-27T04:44:17.199Z,15.80
2017-10-27T04:45:22.624Z,15.37
2017-10-27T04:46:28.025Z,14.43
2017-10-27T04:47:33.443Z,16.07
2017-10-27T04:48:38.834Z,14.63
2017-10-27T04:49:44.432Z,15.03
2017-10-27T04:50:49.943Z,14.40
2017-10-27T04:51:55.811Z,14.07
2017-10-27T04:53:01.445Z,16.13
2017-10-27T04:54:06.932Z,13.73
2017-10-27T04:55:12.386Z,14.33
2017-10-27T04:56:17.817Z,15.33
2017-10-27T04:57:23.253Z,11.30
2017-10-27T04:58:28.668Z,12.70
2017-10-27T04:59:34.100Z,12.50
2017-10-27T05:00:39.534Z,12.90
2017-10-27T05:01:44.943Z,12.23
2017-10-27T05:02:50.727Z,11.07
2017-10-27T05:03:56.253Z,13.13
2017-10-27T05:05:01.666Z,14.50
2017-10-27T05:06:07.241Z,14.57
2017-10-27T05:07:12.675Z,11.00
2017-10-27T05:08:18.399Z,12.57
2017-10-27T05:09:23.795Z,14.20
2017-10-27T05:10:29.225Z,16.10
2017-10-27T05:11:34.659Z,16.17
2017-10-27T05:12:41.298Z,15.80
2017-10-27T05:13:46.749Z,11.37
2017-10-27T05:14:52.113Z,13.53
2017-10-27T05:15:57.565Z,12.63
2017-10-27T05:17:08.420Z,12.60
2017-10-27T05:18:19.101Z,13.53
2017-10-27T05:19:29.875Z,13.57
2017-10-27T05:20:40.527Z,12.73
2017-10-27T05:21:51.070Z,10.17
2017-10-27T05:23:01.715Z,17.53
2017-10-27T05:24:12.423Z,13.90
2017-10-27T05:25:17.812Z,10.80
2017-10-27T05:26:23.658Z,11.27
2017-10-27T05:27:29.045Z,11.47
2017-10-27T05:28:34.567Z,10.00
2017-10-27T05:29:40.011Z,9.50
2017-10-27T05:30:45.578Z,11.90
2017-10-27T05:31:51.022Z,13.00
2017-10-27T05:32:56.469Z,10.93
2017-10-27T05:34:01.881Z,9.60
2017-10-27T05:35:07.287Z,10.37
2017-10-27T05:36:12.659Z,10.00
2017-10-27T05:37:18.568Z,10.40
2017-10-27T05:38:23.999Z,10.53
2017-10-27T05:39:29.402Z,9.23
2017-10-27T05:40:35.047Z,10.73
2017-10-27T05:41:40.586Z,10.20
2017-10-27T05:42:46.285Z,10.50
2017-10-27T05:43:52.455Z,10.20
2017-10-27T05:44:58.159Z,10.77
2017-10-27T05:46:03.622Z,10.73
2017-10-27T05:47:09.108Z,11.40
2017-10-27T05:48:15.232Z,10.83
2017-10-27T05:49:20.671Z,10.00
2017-10-27T05:50:26.120Z,11.13
2017-10-27T05:51:31.545Z,12.80
2017-10-27T05:52:37.004Z,10.40
2017-10-27T05:53:42.654Z,10.70
2017-10-27T05:54:48.065Z,10.93
2017-10-27T05:55:53.510Z,11.10
2017-10-27T05:56:58.941Z,11.13
2017-10-27T05:58:04.410Z,10.30
2017-10-27T05:59:09.966Z,10.60
2017-10-27T06:00:15.450Z,9.03
2017-10-27T06:01:20.863Z,11.67
2017-10-27T06:02:26.390Z,9.30
2017-10-27T06:03:31.898Z,9.63
2017-10-27T06:04:37.339Z,11.23
2017-10-27T06:05:43.191Z,10.77
2017-10-27T06:06:48.832Z,8.63
2017-10-27T06:07:54.267Z,10.10
2017-10-27T06:08:59.743Z,9.23
2017-10-27T06:10:05.396Z,10.27
2017-10-27T06:11:10.828Z,9.77
2017-10-27T06:12:16.616Z,8.73
2017-10-27T06:13:22.481Z,8.80
2017-10-27T06:14:27.892Z,10.50
2017-10-27T06:15:33.301Z,8.90
2017-10-27T06:16:38.955Z,10.33
2017-10-27T06:17:44.827Z,10.60
2017-10-27T06:18:50.297Z,9.20
2017-10-27T06:19:55.774Z,8.97
2017-10-27T06:21:01.226Z,8.30
2017-10-27T06:22:06.826Z,9.10
2017-10-27T06:23:12.328Z,10.10
2017-10-27T06:24:17.741Z,8.50
2017-10-27T06:25:23.206Z,8.57
2017-10-27T06:26:28.743Z,8.17
2017-10-27T06:27:35.961Z,8.63
2017-10-27T06:28:41.757Z,8.53
2017-10-27T06:29:48.317Z,8.83
2017-10-27T06:30:53.805Z,8.70
2017-10-27T06:31:59.234Z,9.07
2017-10-27T06:33:04.657Z,10.03
2017-10-27T06:34:10.102Z,8.83
2017-10-27T06:35:15.589Z,8.40
2017-10-27T06:36:21.049Z,8.57
2017-10-27T06:37:26.757Z,8.03
2017-10-27T06:38:32.180Z,8.77
2017-10-27T06:39:37.668Z,8.50
2017-10-27T06:40:43.115Z,8.97
2017-10-27T06:41:49.173Z,8.00
2017-10-27T06:42:54.567Z,8.23
2017-10-27T06:43:59.990Z,9.67
2017-10-27T06:45:05.415Z,8.60
2017-10-27T06:46:11.154Z,8.37
2017-10-27T06:47:16.621Z,8.13
2017-10-27T06:48:22.046Z,8.57
2017-10-27T06:49:27.491Z,9.57
2017-10-27T06:50:32.939Z,9.20
2017-10-27T06:51:38.406Z,9.50
2017-10-27T06:52:43.888Z,8.70
2017-10-27T06:53:49.306Z,8.30
2017-10-27T06:54:54.764Z,9.43
2017-10-27T06:56:00.496Z,8.17
2017-10-27T06:57:08.316Z,8.10
2017-10-27T06:58:14.323Z,7.50
2017-10-27T06:59:20.121Z,7.40
2017-10-27T07:00:26.514Z,9.30
2017-10-27T07:01:32.515Z,8.60
2017-10-27T07:02:37.990Z,7.13
2017-10-27T07:03:43.472Z,8.10
2017-10-27T07:04:49.118Z,8.53
2017-10-27T07:05:54.793Z,8.03
2017-10-27T07:07:00.462Z,8.93
2017-10-27T07:08:05.948Z,8.60
2017-10-27T07:09:11.826Z,8.77
2017-10-27T07:10:17.448Z,10.20
2017-10-27T07:11:22.917Z,7.90
2017-10-27T07:12:28.443Z,9.57
2017-10-27T07:13:34.974Z,8.87
2017-10-27T07:14:40.368Z,7.53
2017-10-27T07:15:45.852Z,6.67
2017-10-27T07:16:52.325Z,7.00
2017-10-27T07:17:57.832Z,6.60
2017-10-27T07:19:03.265Z,8.33
2017-10-27T07:20:09.088Z,8.17
2017-10-27T07:21:14.591Z,7.53
2017-10-27T07:22:20.777Z,7.83
2017-10-27T07:23:26.247Z,9.00
2017-10-27T07:24:31.846Z,8.60
2017-10-27T07:25:37.822Z,8.07
2017-10-27T07:26:43.786Z,7.90
2017-10-27T07:27:50.487Z,7.63
2017-10-27T07:28:55.922Z,6.40
2017-10-27T07:30:01.543Z,6.17
2017-10-27T07:31:07.552Z,7.27
2017-10-27T07:32:13.064Z,5.73
2017-10-27T07:33:18.559Z,5.50
2017-10-27T07:34:24.779Z,5.60
2017-10-27T07:35:31.393Z,6.03
2017-10-27T07:36:37.334Z,6.00
2017-10-27T07:37:42.901Z,4.80
2017-10-27T07:38:48.414Z,4.00
2017-10-27T07:39:53.929Z,5.23
2017-10-27T07:40:59.463Z,4.23
2017-10-27T07:42:05.005Z,5.30
2017-10-27T07:43:10.552Z,6.40
2017-10-27T07:44:16.395Z,7.00
2017-10-27T07:45:21.907Z,5.90
2017-10-27T07:46:27.696Z,6.23
2017-10-27T07:47:33.647Z,5.00
2017-10-27T07:48:39.388Z,5.53
2017-10-27T07:49:44.980Z,6.10
2017-10-27T07:50:50.576Z,6.07
2017-10-27T07:51:56.099Z,5.30
2017-10-27T07:53:01.583Z,6.17
2017-10-27T07:54:07.129Z,4.97
2017-10-27T07:55:13.240Z,4.50
2017-10-27T07:56:18.829Z,6.00
2017-10-27T07:57:24.667Z,5.90
2017-10-27T07:58:30.599Z,5.53
2017-10-27T07:59:36.198Z,5.00
2017-10-27T08:00:41.714Z,5.07
2017-10-27T08:01:47.218Z,4.23
2017-10-27T08:02:52.713Z,5.10
2017-10-27T08:03:58.432Z,4.40
2017-10-27T08:05:03.923Z,5.40
2017-10-27T08:06:10.637Z,5.10
2017-10-27T08:07:18.278Z,5.10
2017-10-27T08:08:23.784Z,4.50
2017-10-27T08:09:29.516Z,4.63
2017-10-27T08:10:34.979Z,4.10
2017-10-27T08:11:40.512Z,4.20
2017-10-27T08:12:45.973Z,4.07
2017-10-27T08:13:51.496Z,4.30
2017-10-27T08:14:57.416Z,3.83
2017-10-27T08:16:03.875Z,4.73
2017-10-27T08:17:09.425Z,3.93
2017-10-27T08:18:15.343Z,4.87
2017-10-27T08:19:20.855Z,4.00
2017-10-27T08:20:26.640Z,3.80
2017-10-27T08:21:32.315Z,3.80
2017-10-27T08:22:37.899Z,3.17
2017-10-27T08:23:44.439Z,3.80
2017-10-27T08:24:50.212Z,3.57
2017-10-27T08:25:55.743Z,3.63
2017-10-27T08:27:07.591Z,3.10
2017-10-27T08:28:13.218Z,3.47
2017-10-27T08:29:19.076Z,2.87
2017-10-27T08:30:24.673Z,3.90
2017-10-27T08:31:30.790Z,3.90
2017-10-27T08:32:36.831Z,3.77
2017-10-27T08:33:42.347Z,4.10
2017-10-27T08:34:47.944Z,3.53
2017-10-27T08:35:53.948Z,3.67
2017-10-27T08:36:59.952Z,3.73
2017-10-27T08:38:05.952Z,4.20
2017-10-27T08:39:11.656Z,3.30
2017-10-27T08:40:17.205Z,4.10
2017-10-27T08:41:22.880Z,4.37
2017-10-27T08:42:28.474Z,3.90
2017-10-27T08:43:33.967Z,3.87
2017-10-27T08:44:39.543Z,4.43
2017-10-27T08:45:45.252Z,3.63
2017-10-27T08:46:50.978Z,6.70
2017-10-27T08:47:56.564Z,23.83
2017-10-27T08:49:02.515Z,5.80
2017-10-27T08:50:08.866Z,3.80
2017-10-27T08:51:14.889Z,2.63
2017-10-27T08:52:20.488Z,3.73
2017-10-27T08:53:26.127Z,4.00
2017-10-27T08:54:31.751Z,3.37
2017-10-27T08:55:37.549Z,3.33
2017-10-27T08:56:43.386Z,3.27
2017-10-27T08:57:51.137Z,4.20
2017-10-27T08:58:56.743Z,3.83
2017-10-27T09:00:02.752Z,3.00
2017-10-27T09:01:08.499Z,3.73
2017-10-27T09:02:14.237Z,4.23
2017-10-27T09:03:19.744Z,3.90
2017-10-27T09:04:25.238Z,4.10
2017-10-27T09:05:31.182Z,2.60
2017-10-27T09:06:38.318Z,3.43
2017-10-27T09:07:44.060Z,3.63
2017-10-27T09:08:49.581Z,2.33
2017-10-27T09:09:55.577Z,2.90
2017-10-27T09:11:01.452Z,3.33
2017-10-27T09:12:11.509Z,3.20
2017-10-27T09:13:17.098Z,3.03
2017-10-27T09:14:22.680Z,3.20
2017-10-27T09:15:28.254Z,2.50
2017-10-27T09:16:35.860Z,3.50
2017-10-27T09:17:41.464Z,3.57
2017-10-27T09:18:48.043Z,4.10
2017-10-27T09:22:01.556Z,2.80
2017-10-27T09:23:07.159Z,2.13
2017-10-27T09:24:15.093Z,4.90
2017-10-27T09:25:22.267Z,2.87
2017-10-27T09:26:31.133Z,4.10
2017-10-27T09:27:37.473Z,3.70
2017-10-27T09:28:43.159Z,2.80
2017-10-27T09:29:48.706Z,3.13
2017-10-27T09:30:54.224Z,2.97
2017-10-27T09:32:01.004Z,3.50
2017-10-27T09:33:06.609Z,3.07
2017-10-27T09:34:12.315Z,2.33
2017-10-27T09:35:18.697Z,4.10
2017-10-27T09:36:25.069Z,3.13
2017-10-27T09:37:30.734Z,2.23
2017-10-27T09:38:36.399Z,3.00
2017-10-27T09:39:42.521Z,2.70
2017-10-27T09:40:48.494Z,2.50
2017-10-27T09:41:54.288Z,2.90
2017-10-27T09:43:00.532Z,2.77
2017-10-27T09:44:06.346Z,2.50
2017-10-27T09:45:11.931Z,3.53
2017-10-27T09:46:18.010Z,2.47
2017-10-27T09:47:23.695Z,3.10
2017-10-27T09:48:29.282Z,2.23
2017-10-27T09:49:34.814Z,3.37
2017-10-27T09:50:40.753Z,2.67
2017-10-27T09:51:46.359Z,2.93
2017-10-27T09:52:51.877Z,2.47
2017-10-27T09:53:57.444Z,1.60
2017-10-27T09:55:03.176Z,2.73
2017-10-27T09:56:10.624Z,1.53
2017-10-27T09:57:16.286Z,2.83
2017-10-27T09:59:36.919Z,2.43
2017-10-27T10:02:51.238Z,2.57
2017-10-27T10:03:56.825Z,2.77
2017-10-27T10:05:02.627Z,3.23
2017-10-27T10:06:08.166Z,2.60
2017-10-27T10:07:13.770Z,2.43
2017-10-27T10:08:19.450Z,3.17
2017-10-27T10:09:25.081Z,2.30
2017-10-27T10:10:30.764Z,3.43
2017-10-27T10:11:36.360Z,2.53
2017-10-27T10:12:42.009Z,2.57
2017-10-27T10:13:48.436Z,2.47
2017-10-27T10:14:54.576Z,2.47
2017-10-27T10:16:00.209Z,2.43
2017-10-27T10:17:05.839Z,3.73
2017-10-27T10:18:11.472Z,2.67
2017-10-27T10:19:17.500Z,2.83
2017-10-27T10:20:23.078Z,3.33
2017-10-27T10:21:28.609Z,3.10
2017-10-27T10:22:34.128Z,3.10
2017-10-27T10:23:39.690Z,2.53
2017-10-27T10:24:45.286Z,2.60
2017-10-27T10:25:50.903Z,2.30
2017-10-27T10:26:56.524Z,3.50
2017-10-27T10:28:02.090Z,2.73
2017-10-27T10:29:07.740Z,3.17
2017-10-27T10:30:13.786Z,2.10
2017-10-27T10:31:19.462Z,2.73
2017-10-27T10:32:25.105Z,2.73
2017-10-27T10:33:30.732Z,2.90
2017-10-27T10:34:36.309Z,4.37
2017-10-27T10:35:42.578Z,3.30
2017-10-27T10:36:48.225Z,2.80
2017-10-27T10:37:57.823Z,3.37
2017-10-27T10:39:03.483Z,2.50
2017-10-27T10:40:09.265Z,4.93
2017-10-27T10:41:14.947Z,6.17
2017-10-27T10:42:20.586Z,5.00
2017-10-27T10:43:27.336Z,3.43
2017-10-27T10:44:47.591Z,3.07
2017-10-27T10:45:53.670Z,2.60
2017-10-27T10:46:59.273Z,4.20
2017-10-27T10:48:05.045Z,2.70
2017-10-27T10:49:11.045Z,4.53
2017-10-27T10:50:16.631Z,2.50
2017-10-27T10:51:27.597Z,2.80
2017-10-27T10:52:53.656Z,2.80
2017-10-27T10:53:59.498Z,2.73
2017-10-27T10:55:06.214Z,3.20
2017-10-27T10:56:11.756Z,2.67
2017-10-27T10:57:17.627Z,3.87
2017-10-27T10:58:23.878Z,2.23
2017-10-27T10:59:30.344Z,2.30
2017-10-27T11:00:36.164Z,3.63
2017-10-27T11:01:41.754Z,2.50
2017-10-27T11:02:48.340Z,2.27
2017-10-27T11:03:53.953Z,3.70
2017-10-27T11:04:59.994Z,3.47
2017-10-27T11:06:05.533Z,3.33
2017-10-27T11:07:11.239Z,2.50
2017-10-27T11:08:16.968Z,6.13
2017-10-27T11:09:22.868Z,7.50
2017-10-27T11:10:28.502Z,25.17
2017-10-27T11:11:34.133Z,3.73
2017-10-27T11:12:40.110Z,32.83
2017-10-27T11:13:45.914Z,7.00
2017-10-27T11:14:51.626Z,19.07
2017-10-27T11:15:57.674Z,25.73
2017-10-27T11:17:03.385Z,18.97
2017-10-27T11:18:10.156Z,14.70
2017-10-27T11:19:17.050Z,12.80
2017-10-27T11:20:23.653Z,9.57
2017-10-27T11:21:29.315Z,7.40
2017-10-27T11:22:35.367Z,7.57
2017-10-27T11:23:44.520Z,4.53
2017-10-27T11:24:50.018Z,4.30
2017-10-27T11:25:56.260Z,6.00
2017-10-27T11:27:02.337Z,4.53
2017-10-27T11:29:20.768Z,3.00
2017-10-27T11:30:26.960Z,3.37
2017-10-27T11:31:32.606Z,3.20
2017-10-27T11:32:38.325Z,3.10
2017-10-27T11:33:44.134Z,2.57
2017-10-27T11:34:49.846Z,3.13
2017-10-27T11:35:55.928Z,2.90
2017-10-27T11:37:01.834Z,2.10
2017-10-27T11:38:07.540Z,1.90
2017-10-27T11:39:13.167Z,2.97
2017-10-27T11:40:18.824Z,2.00
2017-10-27T11:41:24.645Z,2.97
2017-10-27T11:42:30.811Z,2.07
2017-10-27T11:43:36.626Z,2.10
2017-10-27T11:44:42.336Z,2.10
2017-10-27T11:45:47.877Z,1.90
2017-10-27T11:46:54.058Z,2.27
2017-10-27T11:47:59.597Z,2.83
2017-10-27T11:49:05.638Z,2.50
2017-10-27T11:50:11.380Z,2.03
2017-10-27T11:51:17.039Z,2.10
2017-10-27T11:52:22.766Z,2.03
2017-10-27T11:53:29.013Z,1.97
2017-10-27T11:54:34.975Z,3.50
2017-10-27T11:55:40.692Z,2.50
2017-10-27T11:56:47.252Z,2.40
2017-10-27T11:57:52.807Z,1.63
2017-10-27T11:58:58.635Z,2.00
2017-10-27T12:00:04.276Z,2.97
2017-10-27T12:01:11.983Z,1.83
2017-10-27T12:02:19.554Z,1.67
2017-10-27T12:03:28.310Z,2.03
2017-10-27T12:04:34.997Z,2.50
2017-10-27T12:05:41.295Z,5.30
2017-10-27T12:06:47.224Z,4.47
2017-10-27T12:07:52.927Z,30.27
2017-10-27T12:08:58.628Z,7.57
2017-10-27T12:10:04.451Z,8.00
2017-10-27T12:11:10.118Z,11.97
2017-10-27T12:12:15.885Z,13.10
2017-10-27T12:13:21.488Z,6.67
2017-10-27T12:14:27.216Z,10.33
2017-10-27T12:15:32.970Z,5.80
2017-10-27T12:16:39.689Z,12.70
2017-10-27T12:17:45.347Z,4.30
2017-10-27T12:18:50.990Z,8.23
2017-10-27T12:19:56.684Z,5.80
2017-10-27T12:21:02.416Z,5.17
2017-10-27T12:22:08.641Z,2.60
2017-10-27T12:23:14.333Z,2.90
2017-10-27T12:24:20.062Z,3.00
2017-10-27T12:25:25.717Z,2.63
2017-10-27T12:26:31.609Z,2.83
2017-10-27T12:27:37.212Z,1.90
2017-10-27T12:28:43.129Z,3.10
2017-10-27T12:29:48.761Z,2.50
2017-10-27T12:30:54.356Z,2.13
2017-10-27T12:32:00.170Z,1.43
2017-10-27T12:33:11.705Z,1.60
2017-10-27T12:34:17.493Z,1.90
2017-10-27T12:35:23.255Z,1.73
2017-10-27T12:36:28.975Z,1.77
2017-10-27T12:37:34.668Z,1.77
2017-10-27T12:38:40.628Z,2.33
2017-10-27T12:39:46.985Z,1.93
2017-10-27T12:40:53.238Z,2.03
2017-10-27T12:41:59.152Z,1.77
2017-10-27T12:43:04.809Z,1.27
2017-10-27T12:44:11.034Z,1.07
2017-10-27T12:45:17.063Z,2.00
2017-10-27T12:46:23.293Z,1.00
2017-10-27T12:47:30.004Z,0.93
2017-10-27T12:48:35.685Z,1.33
2017-10-27T12:49:41.671Z,1.13
2017-10-27T12:50:47.563Z,1.60
2017-10-27T12:51:53.099Z,2.37
2017-10-27T12:52:59.136Z,2.30
2017-10-27T12:54:04.755Z,1.63
2017-10-27T12:55:10.366Z,1.30
2017-10-27T12:56:15.892Z,1.87
2017-10-27T12:57:21.554Z,1.67
2017-10-27T12:58:27.179Z,1.40
2017-10-27T12:59:33.043Z,1.67
2017-10-27T13:00:38.792Z,1.67
2017-10-27T13:01:44.688Z,2.20
2017-10-27T13:02:50.602Z,5.40
2017-10-27T13:03:56.240Z,6.30
2017-10-27T13:05:01.746Z,8.87
2017-10-27T13:06:07.458Z,15.53
2017-10-27T13:07:12.939Z,5.70
2017-10-27T13:08:18.730Z,14.70
2017-10-27T13:09:24.237Z,15.23
2017-10-27T13:10:29.774Z,11.00
2017-10-27T13:11:35.295Z,9.93
2017-10-27T13:12:40.900Z,7.33
2017-10-27T13:13:46.749Z,5.80
2017-10-27T13:14:52.317Z,6.07
2017-10-27T13:15:57.915Z,3.93
2017-10-27T13:17:03.706Z,3.97
2017-10-27T13:18:10.242Z,3.07
2017-10-27T13:19:16.299Z,2.90
2017-10-27T13:20:21.963Z,2.00
2017-10-27T13:21:27.729Z,2.23
2017-10-27T13:22:33.614Z,3.10
2017-10-27T13:23:39.215Z,1.67
2017-10-27T13:24:45.232Z,1.47
2017-10-27T13:25:50.843Z,2.67
2017-10-27T13:26:56.420Z,2.07
2017-10-27T13:28:02.008Z,1.50
2017-10-27T13:29:07.547Z,2.57
2017-10-27T13:30:13.136Z,2.30
2017-10-27T13:31:19.260Z,1.67
2017-10-27T13:32:24.766Z,1.23
2017-10-27T13:33:30.745Z,2.83
2017-10-27T13:34:36.633Z,1.93
2017-10-27T13:35:42.552Z,1.97
2017-10-27T13:36:48.212Z,2.40
2017-10-27T13:37:53.901Z,2.17
2017-10-27T13:38:59.644Z,2.30
2017-10-27T13:40:05.349Z,2.33
2017-10-27T13:41:11.106Z,2.30
2017-10-27T13:42:17.069Z,1.57
2017-10-27T13:43:23.169Z,1.90
2017-10-27T13:44:29.861Z,1.60
2017-10-27T13:45:35.520Z,2.40
2017-10-27T13:46:41.221Z,1.93
2017-10-27T13:47:47.027Z,1.73
2017-10-27T13:48:52.742Z,2.23
2017-10-27T13:49:58.304Z,1.23
2017-10-27T13:51:04.086Z,1.87
2017-10-27T13:52:10.211Z,3.57
2017-10-27T13:53:15.912Z,2.03
2017-10-27T13:54:21.607Z,2.17
2017-10-27T13:55:27.410Z,2.37
2017-10-27T13:56:33.356Z,1.87
2017-10-27T13:57:39.624Z,2.50
2017-10-27T13:58:46.287Z,2.00
2017-10-27T13:59:52.013Z,2.37
2017-10-27T14:00:58.543Z,2.37
2017-10-27T14:02:05.137Z,1.70
2017-10-27T14:03:12.029Z,2.37
2017-10-27T14:04:18.568Z,1.70
2017-10-27T14:05:24.711Z,2.17
2017-10-27T14:06:31.177Z,2.53
2017-10-27T14:07:36.805Z,2.40
2017-10-27T14:08:42.946Z,2.23
2017-10-27T14:09:49.230Z,1.67
2017-10-27T14:10:55.521Z,2.50
2017-10-27T14:12:01.495Z,2.40
2017-10-27T14:13:07.327Z,2.00
2017-10-27T14:14:13.067Z,1.53
2017-10-27T14:15:18.714Z,2.57
2017-10-27T14:16:24.400Z,2.53
2017-10-27T14:17:29.976Z,4.67
2017-10-27T14:18:35.596Z,11.33
2017-10-27T14:19:41.139Z,4.50
2017-10-27T14:20:47.040Z,7.93
2017-10-27T14:21:52.603Z,6.17
2017-10-27T14:22:58.556Z,5.07
2017-10-27T14:24:04.169Z,6.73
2017-10-27T14:25:09.832Z,2.70
2017-10-27T14:26:15.388Z,2.60
2017-10-27T14:27:21.082Z,4.33
2017-10-27T14:28:26.931Z,7.40
2017-10-27T14:29:32.606Z,4.50
2017-10-27T14:30:38.159Z,2.33
2017-10-27T14:31:44.397Z,3.70